createdAt,value
2016-11-03T00:00:20.858Z,76
2016-11-03T00:01:25.518Z,76
2016-11-03T00:02:21.011Z,76
2016-11-03T00:03:22.280Z,76
2016-11-03T00:04:21.662Z,76
2016-11-03T00:05:21.462Z,76
2016-11-03T00:06:21.152Z,76
2016-11-03T00:07:21.875Z,76
2016-11-03T00:08:21.143Z,76
2016-11-03T00:09:22.550Z,76
2016-11-03T00:10:20.598Z,76
2016-11-03T00:11:21.319Z,76
2016-11-03T00:12:23.154Z,76
2016-11-03T00:13:20.706Z,76
2016-11-03T00:14:22.197Z,76
2016-11-03T00:15:22.681Z,72
2016-11-03T00:16:20.875Z,76
2016-11-03T00:17:21.623Z,76
2016-11-03T00:18:21.419Z,72
2016-11-03T00:19:22.722Z,80
2016-11-03T00:20:21.635Z,76
2016-11-03T00:21:21.106Z,76
2016-11-03T00:22:22.399Z,76
2016-11-03T00:23:22.453Z,76
2016-11-03T00:24:21.671Z,76
2016-11-03T00:25:22.508Z,76
2016-11-03T00:26:20.602Z,76
2016-11-03T00:27:21.352Z,76
2016-11-03T00:28:21.318Z,72
2016-11-03T00:29:22.049Z,76
2016-11-03T00:30:21.376Z,76
2016-11-03T00:31:21.494Z,76
2016-11-03T00:32:22.552Z,76
2016-11-03T00:33:21.909Z,76
2016-11-03T00:34:23.437Z,76
2016-11-03T00:35:22.248Z,76
2016-11-03T00:36:22.344Z,76
2016-11-03T00:37:21.517Z,76
2016-11-03T00:38:22.796Z,76
2016-11-03T00:39:21.731Z,76
2016-11-03T00:40:23.136Z,76
2016-11-03T00:41:22.607Z,76
2016-11-03T00:42:21.902Z,76
2016-11-03T00:43:21.757Z,76
2016-11-03T00:44:22.735Z,76
2016-11-03T00:45:21.862Z,76
2016-11-03T00:46:21.884Z,76
2016-11-03T00:47:23.578Z,76
2016-11-03T00:48:20.716Z,76
2016-11-03T00:49:21.899Z,76
2016-11-03T00:50:22.863Z,76
2016-11-03T00:51:20.850Z,76
2016-11-03T00:52:21.579Z,76
2016-11-03T00:53:21.250Z,76
2016-11-03T00:54:22.343Z,76
2016-11-03T00:55:22.131Z,76
2016-11-03T00:56:27.087Z,76
2016-11-03T00:57:22.467Z,76
2016-11-03T00:58:23.827Z,76
2016-11-03T00:59:21.933Z,76
2016-11-03T01:00:22.590Z,76
2016-11-03T01:01:21.948Z,76
2016-11-03T01:02:21.590Z,76
2016-11-03T01:03:22.711Z,76
2016-11-03T01:04:22.070Z,76
2016-11-03T01:05:23.476Z,76
2016-11-03T01:06:23.282Z,76
2016-11-03T01:07:22.169Z,76
2016-11-03T01:08:21.982Z,76
2016-11-03T01:09:23.583Z,76
2016-11-03T01:10:22.317Z,72
2016-11-03T01:11:22.017Z,76
2016-11-03T01:12:23.504Z,76
2016-11-03T01:13:21.172Z,76
2016-11-03T01:14:21.799Z,76
2016-11-03T01:15:23.204Z,76
2016-11-03T01:16:24.609Z,76
2016-11-03T01:17:22.395Z,76
2016-11-03T01:18:23.210Z,76
2016-11-03T01:19:22.685Z,76
2016-11-03T01:20:22.416Z,76
2016-11-03T01:21:21.513Z,76
2016-11-03T01:22:22.807Z,76
2016-11-03T01:23:22.591Z,76
2016-11-03T01:24:21.524Z,76
2016-11-03T01:25:21.345Z,76
2016-11-03T01:26:22.288Z,76
2016-11-03T01:27:22.075Z,76
2016-11-03T01:28:23.056Z,76
2016-11-03T01:29:23.254Z,76
2016-11-03T01:30:21.830Z,76
2016-11-03T01:31:23.175Z,76
2016-11-03T01:32:21.208Z,76
2016-11-03T01:33:22.207Z,76
2016-11-03T01:34:21.858Z,76
2016-11-03T01:35:23.059Z,76
2016-11-03T01:36:22.491Z,76
2016-11-03T01:37:23.420Z,76
2016-11-03T01:38:23.378Z,76
2016-11-03T01:39:20.528Z,76
2016-11-03T01:40:23.516Z,76
2016-11-03T01:41:22.954Z,76
2016-11-03T01:42:22.259Z,76
2016-11-03T01:43:22.479Z,76
2016-11-03T01:44:21.738Z,76
2016-11-03T01:45:22.691Z,76
2016-11-03T01:46:22.217Z,76
2016-11-03T01:47:21.900Z,76
2016-11-03T01:48:22.503Z,76
2016-11-03T01:49:23.797Z,76
2016-11-03T01:50:21.996Z,76
2016-11-03T01:51:24.654Z,76
2016-11-03T01:52:22.418Z,76
2016-11-03T01:53:23.762Z,76
2016-11-03T01:54:22.863Z,76
2016-11-03T01:55:22.547Z,76
2016-11-03T01:56:21.803Z,76
2016-11-03T01:57:23.298Z,76
2016-11-03T01:58:22.656Z,76
2016-11-03T01:59:22.137Z,76
2016-11-03T02:00:21.367Z,76
2016-11-03T02:01:20.987Z,76
2016-11-03T02:02:22.296Z,76
2016-11-03T02:03:23.547Z,76
2016-11-03T02:04:22.478Z,76
2016-11-03T02:05:21.836Z,76
2016-11-03T02:06:22.015Z,76
2016-11-03T02:07:22.599Z,76
2016-11-03T02:08:22.384Z,76
2016-11-03T02:09:22.139Z,76
2016-11-03T02:10:22.723Z,76
2016-11-03T02:11:22.577Z,76
2016-11-03T02:12:22.219Z,76
2016-11-03T02:13:22.895Z,76
2016-11-03T02:14:22.516Z,76
2016-11-03T02:15:24.014Z,76
2016-11-03T02:16:23.066Z,76
2016-11-03T02:17:21.111Z,76
2016-11-03T02:18:21.993Z,76
2016-11-03T02:19:23.517Z,76
2016-11-03T02:20:21.185Z,76
2016-11-03T02:21:22.356Z,76
2016-11-03T02:22:23.595Z,76
2016-11-03T02:23:22.572Z,76
2016-11-03T02:24:24.489Z,76
2016-11-03T02:25:23.450Z,0
2016-11-03T02:26:23.551Z,0
2016-11-03T02:27:22.181Z,0
2016-11-03T02:28:22.183Z,0
2016-11-03T02:29:23.223Z,0
2016-11-03T02:30:22.571Z,0
2016-11-03T02:31:24.058Z,0
2016-11-03T02:32:23.033Z,0
2016-11-03T02:33:22.792Z,0
2016-11-03T02:34:23.705Z,0
2016-11-03T02:35:21.838Z,0
2016-11-03T02:36:22.898Z,0
2016-11-03T02:37:23.828Z,0
2016-11-03T02:38:23.186Z,0
2016-11-03T02:39:21.294Z,0
2016-11-03T02:40:22.525Z,0
2016-11-03T02:41:23.308Z,0
2016-11-03T02:42:23.092Z,0
2016-11-03T02:43:22.576Z,0
2016-11-03T02:44:23.852Z,0
2016-11-03T02:45:21.446Z,0
2016-11-03T02:46:26.211Z,0
2016-11-03T02:47:23.555Z,0
2016-11-03T02:48:22.911Z,0
2016-11-03T02:49:23.017Z,0
2016-11-03T02:50:24.104Z,0
2016-11-03T02:51:23.460Z,0
2016-11-03T02:52:22.475Z,0
2016-11-03T02:53:22.524Z,0
2016-11-03T02:54:23.588Z,0
2016-11-03T02:55:22.518Z,0
2016-11-03T02:56:23.839Z,0
2016-11-03T02:57:23.734Z,0
2016-11-03T02:58:21.099Z,0
2016-11-03T02:59:22.574Z,0
2016-11-03T03:00:22.085Z,0
2016-11-03T03:01:21.431Z,0
2016-11-03T03:02:24.172Z,0
2016-11-03T03:03:22.199Z,0
2016-11-03T03:04:21.529Z,0
2016-11-03T03:05:22.790Z,0
2016-11-03T03:06:24.492Z,0
2016-11-03T03:07:21.632Z,0
2016-11-03T03:08:22.979Z,0
2016-11-03T03:09:22.185Z,0
2016-11-03T03:10:23.106Z,0
2016-11-03T03:11:22.868Z,0
2016-11-03T03:12:22.670Z,0
2016-11-03T03:13:23.363Z,0
2016-11-03T03:14:22.882Z,0
2016-11-03T03:15:22.585Z,0
2016-11-03T03:16:23.803Z,0
2016-11-03T03:17:22.614Z,0
2016-11-03T03:18:22.692Z,0
2016-11-03T03:19:26.028Z,0
2016-11-03T03:20:22.856Z,0
2016-11-03T03:21:24.201Z,0
2016-11-03T03:22:23.732Z,0
2016-11-03T03:23:21.608Z,0
2016-11-03T03:24:22.764Z,0
2016-11-03T03:25:23.742Z,0
2016-11-03T03:26:23.102Z,0
2016-11-03T03:27:23.054Z,0
2016-11-03T03:28:23.866Z,0
2016-11-03T03:29:23.224Z,0
2016-11-03T03:30:22.526Z,0
2016-11-03T03:31:22.717Z,0
2016-11-03T03:32:22.021Z,0
2016-11-03T03:33:22.760Z,0
2016-11-03T03:34:24.382Z,0
2016-11-03T03:35:23.469Z,0
2016-11-03T03:36:22.747Z,0
2016-11-03T03:37:22.743Z,0
2016-11-03T03:38:24.018Z,0
2016-11-03T03:39:23.322Z,0
2016-11-03T03:40:22.775Z,0
2016-11-03T03:41:25.761Z,0
2016-11-03T03:42:21.724Z,0
2016-11-03T03:43:24.428Z,0
2016-11-03T03:44:22.515Z,0
2016-11-03T03:45:21.838Z,0
2016-11-03T03:46:23.108Z,0
2016-11-03T03:47:22.639Z,0
2016-11-03T03:48:23.630Z,0
2016-11-03T03:49:22.677Z,0
2016-11-03T03:50:24.510Z,0
2016-11-03T03:51:21.807Z,0
2016-11-03T03:52:22.801Z,0
2016-11-03T03:53:24.205Z,0
2016-11-03T03:54:22.190Z,0
2016-11-03T03:55:22.924Z,0
2016-11-03T03:56:22.953Z,0
2016-11-03T03:57:23.688Z,0
2016-11-03T03:58:22.930Z,0
2016-11-03T03:59:24.332Z,0
2016-11-03T04:00:22.221Z,0
2016-11-03T04:01:23.721Z,0
2016-11-03T04:02:23.075Z,0
2016-11-03T04:03:22.660Z,0
2016-11-03T04:04:21.603Z,0
2016-11-03T04:05:23.200Z,0
2016-11-03T04:06:24.482Z,0
2016-11-03T04:07:22.044Z,0
2016-11-03T04:08:22.658Z,0
2016-11-03T04:09:22.952Z,0
2016-11-03T04:10:23.964Z,0
2016-11-03T04:11:23.318Z,0
2016-11-03T04:12:24.377Z,0
2016-11-03T04:13:23.658Z,0
2016-11-03T04:14:23.816Z,0
2016-11-03T04:15:23.056Z,0
2016-11-03T04:16:22.459Z,0
2016-11-03T04:17:23.252Z,0
2016-11-03T04:18:24.425Z,0
2016-11-03T04:19:22.581Z,0
2016-11-03T04:20:23.262Z,0
2016-11-03T04:21:23.483Z,0
2016-11-03T04:22:24.028Z,0
2016-11-03T04:23:24.183Z,0
2016-11-03T04:24:23.170Z,0
2016-11-03T04:25:26.246Z,0
2016-11-03T04:26:23.508Z,0
2016-11-03T04:27:23.469Z,0
2016-11-03T04:28:24.273Z,0
2016-11-03T04:29:23.742Z,0
2016-11-03T04:30:23.739Z,0
2016-11-03T04:31:24.393Z,0
2016-11-03T04:32:23.754Z,0
2016-11-03T04:33:23.149Z,0
2016-11-03T04:34:25.075Z,0
2016-11-03T04:35:22.551Z,0
2016-11-03T04:36:24.080Z,0
2016-11-03T04:37:24.640Z,0
2016-11-03T04:38:22.677Z,0
2016-11-03T04:39:23.782Z,0
2016-11-03T04:40:23.261Z,0
2016-11-03T04:41:24.123Z,0
2016-11-03T04:42:22.150Z,0
2016-11-03T04:43:23.389Z,0
2016-11-03T04:44:22.915Z,0
2016-11-03T04:45:23.584Z,0
2016-11-03T04:46:23.387Z,0
2016-11-03T04:47:25.210Z,0
2016-11-03T04:48:23.725Z,0
2016-11-03T04:49:23.938Z,0
2016-11-03T04:50:24.602Z,0
2016-11-03T04:51:22.577Z,0
2016-11-03T04:52:23.319Z,0
2016-11-03T04:53:23.027Z,0
2016-11-03T04:54:23.970Z,0
2016-11-03T04:55:23.328Z,0
2016-11-03T04:56:25.325Z,0
2016-11-03T04:57:24.259Z,0
2016-11-03T04:58:23.332Z,0
2016-11-03T04:59:23.640Z,0
2016-11-03T05:00:24.219Z,0
2016-11-03T05:01:22.296Z,0
2016-11-03T05:02:23.219Z,0
2016-11-03T05:03:23.016Z,0
2016-11-03T05:04:22.421Z,0
2016-11-03T05:05:24.984Z,0
2016-11-03T05:06:24.462Z,0
2016-11-03T05:07:23.983Z,0
2016-11-03T05:08:23.655Z,0
2016-11-03T05:09:23.258Z,0
2016-11-03T05:10:22.620Z,0
2016-11-03T05:11:23.728Z,0
2016-11-03T05:12:24.707Z,0
2016-11-03T05:13:22.375Z,0
2016-11-03T05:14:24.048Z,0
2016-11-03T05:15:23.489Z,0
2016-11-03T05:16:22.869Z,0
2016-11-03T05:17:23.597Z,0
2016-11-03T05:18:24.928Z,0
2016-11-03T05:19:24.312Z,0
2016-11-03T05:20:24.093Z,0
2016-11-03T05:21:23.887Z,0
2016-11-03T05:22:23.127Z,0
2016-11-03T05:23:24.132Z,0
2016-11-03T05:24:23.263Z,0
2016-11-03T05:25:24.555Z,0
2016-11-03T05:26:22.310Z,0
2016-11-03T05:27:23.820Z,0
2016-11-03T05:28:23.040Z,0
2016-11-03T05:29:22.660Z,0
2016-11-03T05:30:23.512Z,0
2016-11-03T05:31:24.805Z,0
2016-11-03T05:32:24.160Z,0
2016-11-03T05:33:23.661Z,0
2016-11-03T05:34:24.972Z,0
2016-11-03T05:35:24.283Z,0
2016-11-03T05:36:24.066Z,0
2016-11-03T05:37:25.053Z,0
2016-11-03T05:38:24.492Z,0
2016-11-03T05:39:22.562Z,0
2016-11-03T05:40:25.602Z,0
2016-11-03T05:41:24.527Z,0
2016-11-03T05:42:27.939Z,0
2016-11-03T05:43:23.794Z,0
2016-11-03T05:44:23.375Z,0
2016-11-03T05:45:22.633Z,0
2016-11-03T05:46:23.367Z,0
2016-11-03T05:47:23.447Z,0
2016-11-03T05:48:22.807Z,0
2016-11-03T05:49:23.916Z,0
2016-11-03T05:50:25.324Z,0
2016-11-03T05:51:24.313Z,0
2016-11-03T05:52:24.006Z,0
2016-11-03T05:53:25.451Z,0
2016-11-03T05:54:24.383Z,0
2016-11-03T05:55:24.047Z,0
2016-11-03T05:56:23.828Z,0
2016-11-03T05:57:24.981Z,4
2016-11-03T05:58:23.860Z,4
2016-11-03T05:59:53.920Z,4
2016-11-03T06:00:24.621Z,4
2016-11-03T06:01:24.095Z,4
2016-11-03T06:02:23.937Z,4
2016-11-03T06:03:23.419Z,4
2016-11-03T06:04:24.070Z,0
2016-11-03T06:05:23.497Z,0
2016-11-03T06:06:25.295Z,0
2016-11-03T06:07:24.225Z,0
2016-11-03T06:08:23.818Z,0
2016-11-03T06:09:23.669Z,0
2016-11-03T06:10:23.023Z,0
2016-11-03T06:11:23.715Z,0
2016-11-03T06:12:23.889Z,4
2016-11-03T06:13:24.947Z,4
2016-11-03T06:14:23.952Z,4
2016-11-03T06:15:25.863Z,4
2016-11-03T06:16:25.002Z,4
2016-11-03T06:17:23.954Z,4
2016-11-03T06:18:25.359Z,4
2016-11-03T06:19:24.718Z,4
2016-11-03T06:20:22.879Z,8
2016-11-03T06:21:24.263Z,8
2016-11-03T06:22:24.932Z,8
2016-11-03T06:23:24.200Z,8
2016-11-03T06:24:24.173Z,8
2016-11-03T06:25:24.961Z,8
2016-11-03T06:26:24.370Z,8
2016-11-03T06:27:24.232Z,12
2016-11-03T06:28:25.084Z,12
2016-11-03T06:29:23.118Z,8
2016-11-03T06:30:24.279Z,12
2016-11-03T06:31:25.639Z,12
2016-11-03T06:32:24.974Z,12
2016-11-03T06:33:24.039Z,12
2016-11-03T06:34:25.492Z,12
2016-11-03T06:35:25.331Z,12
2016-11-03T06:36:24.048Z,16
2016-11-03T06:37:25.415Z,16
2016-11-03T06:38:23.482Z,16
2016-11-03T06:39:22.977Z,16
2016-11-03T06:40:25.460Z,20
2016-11-03T06:41:23.623Z,20
2016-11-03T06:42:22.998Z,20
2016-11-03T06:43:24.436Z,20
2016-11-03T06:44:23.735Z,24
2016-11-03T06:45:24.467Z,28
2016-11-03T06:46:26.184Z,24
2016-11-03T06:47:25.606Z,32
2016-11-03T06:48:24.765Z,32
2016-11-03T06:49:23.898Z,36
2016-11-03T06:50:24.005Z,44
2016-11-03T06:51:24.660Z,48
2016-11-03T06:52:24.020Z,48
2016-11-03T06:53:23.785Z,48
2016-11-03T06:54:23.458Z,52
2016-11-03T06:55:24.452Z,52
2016-11-03T06:56:24.155Z,52
2016-11-03T06:57:25.458Z,56
2016-11-03T06:58:24.316Z,56
2016-11-03T06:59:25.671Z,56
2016-11-03T07:00:25.455Z,60
2016-11-03T07:01:24.387Z,64
2016-11-03T07:02:24.213Z,80
2016-11-03T07:03:25.314Z,92
2016-11-03T07:04:24.966Z,80
2016-11-03T07:05:24.219Z,80
2016-11-03T07:06:23.709Z,80
2016-11-03T07:07:24.633Z,80
2016-11-03T07:08:24.227Z,76
2016-11-03T07:09:25.395Z,84
2016-11-03T07:10:25.447Z,84
2016-11-03T07:11:24.282Z,80
2016-11-03T07:12:25.567Z,76
2016-11-03T07:13:23.504Z,88
2016-11-03T07:14:24.670Z,84
2016-11-03T07:15:26.069Z,88
2016-11-03T07:16:25.163Z,100
2016-11-03T07:17:26.287Z,112
2016-11-03T07:18:24.472Z,148
2016-11-03T07:19:25.122Z,144
2016-11-03T07:20:24.911Z,132
2016-11-03T07:21:26.430Z,124
2016-11-03T07:22:23.924Z,124
2016-11-03T07:23:24.698Z,124
2016-11-03T07:24:24.387Z,124
2016-11-03T07:25:25.796Z,124
2016-11-03T07:26:24.725Z,128
2016-11-03T07:27:24.197Z,132
2016-11-03T07:28:25.374Z,136
2016-11-03T07:29:23.473Z,140
2016-11-03T07:30:24.526Z,148
2016-11-03T07:31:25.775Z,168
2016-11-03T07:32:23.592Z,172
2016-11-03T07:33:25.040Z,176
2016-11-03T07:34:25.734Z,176
2016-11-03T07:35:25.515Z,164
2016-11-03T07:36:24.450Z,168
2016-11-03T07:37:25.856Z,196
2016-11-03T07:38:23.575Z,260
2016-11-03T07:39:24.863Z,284
2016-11-03T07:40:40.306Z,308
2016-11-03T07:41:25.767Z,400
2016-11-03T07:42:24.697Z,396
2016-11-03T07:43:24.337Z,388
2016-11-03T07:44:25.463Z,332
2016-11-03T07:45:24.932Z,324
2016-11-03T07:46:24.724Z,328
2016-11-03T07:47:25.581Z,336
2016-11-03T07:48:24.940Z,304
2016-11-03T07:49:24.854Z,288
2016-11-03T07:50:28.137Z,352
2016-11-03T07:51:25.427Z,376
2016-11-03T07:52:26.352Z,416
2016-11-03T07:53:24.554Z,552
2016-11-03T07:54:25.657Z,516
2016-11-03T07:55:24.654Z,440
2016-11-03T07:56:24.705Z,440
2016-11-03T07:57:25.393Z,448
2016-11-03T07:58:25.197Z,436
2016-11-03T07:59:24.293Z,424
2016-11-03T08:00:24.143Z,384
2016-11-03T08:01:23.344Z,320
2016-11-03T08:02:24.691Z,344
2016-11-03T08:03:26.086Z,372
2016-11-03T08:04:23.571Z,384
2016-11-03T08:05:26.308Z,448
2016-11-03T08:06:24.347Z,436
2016-11-03T08:07:25.027Z,460
2016-11-03T08:08:24.579Z,440
2016-11-03T08:09:25.902Z,428
2016-11-03T08:10:25.152Z,380
2016-11-03T08:11:24.936Z,376
2016-11-03T08:12:25.914Z,368
2016-11-03T08:13:25.269Z,348
2016-11-03T08:14:26.675Z,356
2016-11-03T08:15:26.035Z,348
2016-11-03T08:16:25.393Z,340
2016-11-03T08:17:25.186Z,336
2016-11-03T08:18:26.158Z,360
2016-11-03T08:19:23.877Z,404
2016-11-03T08:20:25.291Z,416
2016-11-03T08:21:24.751Z,480
2016-11-03T08:22:25.726Z,480
2016-11-03T08:23:25.826Z,600
2016-11-03T08:24:25.214Z,636
2016-11-03T08:25:27.693Z,628
2016-11-03T08:26:25.435Z,760
2016-11-03T08:27:26.582Z,680
2016-11-03T08:28:25.881Z,580
2016-11-03T08:29:25.240Z,468
2016-11-03T08:30:25.024Z,420
2016-11-03T08:31:26.003Z,372
2016-11-03T08:32:23.741Z,384
2016-11-03T08:33:24.773Z,400
2016-11-03T08:34:26.126Z,368
2016-11-03T08:35:24.109Z,336
2016-11-03T08:36:27.466Z,300
2016-11-03T08:37:24.664Z,268
2016-11-03T08:38:24.287Z,268
2016-11-03T08:39:25.236Z,276
2016-11-03T08:40:24.999Z,288
2016-11-03T08:41:25.729Z,312
2016-11-03T08:42:25.202Z,360
2016-11-03T08:43:26.510Z,368
2016-11-03T08:44:26.294Z,352
2016-11-03T08:45:23.621Z,356
2016-11-03T08:46:25.427Z,380
2016-11-03T08:47:26.246Z,404
2016-11-03T08:48:23.998Z,396
2016-11-03T08:49:25.260Z,440
2016-11-03T08:50:24.820Z,416
2016-11-03T08:51:24.083Z,476
2016-11-03T08:52:25.397Z,508
2016-11-03T08:53:26.621Z,500
2016-11-03T08:54:25.580Z,468
2016-11-03T08:55:24.937Z,476
2016-11-03T08:56:26.784Z,504
2016-11-03T08:57:25.701Z,456
2016-11-03T08:58:25.611Z,484
2016-11-03T08:59:26.448Z,484
2016-11-03T09:00:25.805Z,532
2016-11-03T09:01:23.685Z,580
2016-11-03T09:02:25.371Z,540
2016-11-03T09:03:25.948Z,508
2016-11-03T09:04:24.018Z,480
2016-11-03T09:05:24.777Z,508
2016-11-03T09:06:26.525Z,488
2016-11-03T09:07:25.543Z,528
2016-11-03T09:08:25.387Z,528
2016-11-03T09:09:30.242Z,552
2016-11-03T09:10:25.910Z,560
2016-11-03T09:11:26.910Z,556
2016-11-03T09:12:25.043Z,528
2016-11-03T09:13:24.354Z,472
2016-11-03T09:14:25.501Z,476
2016-11-03T09:15:25.115Z,488
2016-11-03T09:16:25.794Z,492
2016-11-03T09:17:25.498Z,484
2016-11-03T09:18:26.559Z,508
2016-11-03T09:19:26.030Z,532
2016-11-03T09:20:25.548Z,480
2016-11-03T09:21:26.681Z,536
2016-11-03T09:22:26.766Z,660
2016-11-03T09:23:25.400Z,656
2016-11-03T09:24:24.993Z,632
2016-11-03T09:25:26.595Z,540
2016-11-03T09:26:24.187Z,532
2016-11-03T09:27:25.264Z,564
2016-11-03T09:28:26.710Z,644
2016-11-03T09:29:26.242Z,792
2016-11-03T09:30:25.273Z,876
2016-11-03T09:31:26.385Z,928
2016-11-03T09:32:24.435Z,928
2016-11-03T09:33:27.079Z,872
2016-11-03T09:34:26.530Z,852
2016-11-03T09:35:24.201Z,844
2016-11-03T09:36:25.681Z,756
2016-11-03T09:37:25.441Z,664
2016-11-03T09:38:26.061Z,676
2016-11-03T09:39:25.643Z,616
2016-11-03T09:40:26.886Z,516
2016-11-03T09:41:26.134Z,456
2016-11-03T09:42:26.026Z,456
2016-11-03T09:43:25.711Z,500
2016-11-03T09:44:26.256Z,520
2016-11-03T09:45:24.332Z,560
2016-11-03T09:46:25.777Z,624
2016-11-03T09:47:26.379Z,696
2016-11-03T09:48:25.738Z,772
2016-11-03T09:49:25.656Z,828
2016-11-03T09:50:25.173Z,844
2016-11-03T09:51:28.228Z,796
2016-11-03T09:52:25.651Z,828
2016-11-03T09:53:26.836Z,912
2016-11-03T09:54:25.983Z,956
2016-11-03T09:55:25.906Z,980
2016-11-03T09:56:25.110Z,984
2016-11-03T09:57:24.812Z,1036
2016-11-03T09:58:25.815Z,1000
2016-11-03T09:59:27.298Z,928
2016-11-03T10:00:24.589Z,996
2016-11-03T10:01:25.589Z,1020
2016-11-03T10:02:27.429Z,1096
2016-11-03T10:03:26.351Z,1188
2016-11-03T10:04:27.756Z,1176
2016-11-03T10:05:25.930Z,1252
2016-11-03T10:06:26.573Z,1160
2016-11-03T10:07:26.262Z,1080
2016-11-03T10:08:25.564Z,936
2016-11-03T10:09:26.868Z,976
2016-11-03T10:10:24.681Z,1004
2016-11-03T10:11:25.553Z,1036
2016-11-03T10:12:27.146Z,996
2016-11-03T10:13:26.504Z,988
2016-11-03T10:14:25.555Z,1044
2016-11-03T10:15:27.669Z,984
2016-11-03T10:16:26.362Z,960
2016-11-03T10:17:25.611Z,900
2016-11-03T10:18:27.434Z,848
2016-11-03T10:19:26.354Z,796
2016-11-03T10:20:26.162Z,780
2016-11-03T10:21:27.089Z,848
2016-11-03T10:22:26.448Z,924
2016-11-03T10:23:25.921Z,996
2016-11-03T10:24:27.212Z,996
2016-11-03T10:25:26.971Z,1072
2016-11-03T10:26:26.331Z,1136
2016-11-03T10:27:25.738Z,1156
2016-11-03T10:28:27.118Z,1092
2016-11-03T10:29:28.254Z,1028
2016-11-03T10:30:25.793Z,892
2016-11-03T10:31:26.984Z,876
2016-11-03T10:32:26.175Z,916
2016-11-03T10:33:26.080Z,1000
2016-11-03T10:34:27.364Z,940
2016-11-03T10:35:26.777Z,868
2016-11-03T10:36:24.424Z,828
2016-11-03T10:37:25.782Z,848
2016-11-03T10:38:26.420Z,796
2016-11-03T10:39:25.844Z,728
2016-11-03T10:40:25.961Z,768
2016-11-03T10:41:26.543Z,856
2016-11-03T10:42:26.015Z,884
2016-11-03T10:43:25.850Z,888
2016-11-03T10:44:26.755Z,800
2016-11-03T10:45:26.136Z,748
2016-11-03T10:46:27.905Z,596
2016-11-03T10:47:25.209Z,564
2016-11-03T10:48:30.242Z,540
2016-11-03T10:49:25.898Z,544
2016-11-03T10:50:26.911Z,524
2016-11-03T10:51:24.896Z,456
2016-11-03T10:52:27.675Z,420
2016-11-03T10:53:25.757Z,444
2016-11-03T10:54:26.704Z,516
2016-11-03T10:55:26.243Z,580
2016-11-03T10:56:27.206Z,576
2016-11-03T10:57:28.535Z,588
2016-11-03T10:58:25.872Z,636
2016-11-03T10:59:27.672Z,720
2016-11-03T11:00:28.684Z,688
2016-11-03T11:01:27.970Z,640
2016-11-03T11:02:25.988Z,588
2016-11-03T11:03:25.431Z,608
2016-11-03T11:04:26.004Z,656
2016-11-03T11:05:27.525Z,660
2016-11-03T11:06:27.048Z,644
2016-11-03T11:07:24.677Z,624
2016-11-03T11:08:27.961Z,664
2016-11-03T11:09:25.729Z,676
2016-11-03T11:10:26.364Z,772
2016-11-03T11:11:26.371Z,732
2016-11-03T11:12:27.127Z,748
2016-11-03T11:13:26.535Z,740
2016-11-03T11:14:26.393Z,680
2016-11-03T11:15:27.549Z,688
2016-11-03T11:16:27.283Z,652
2016-11-03T11:17:26.481Z,628
2016-11-03T11:18:27.374Z,648
2016-11-03T11:19:27.118Z,612
2016-11-03T11:20:26.835Z,628
2016-11-03T11:21:28.172Z,604
2016-11-03T11:22:27.279Z,596
2016-11-03T11:23:26.212Z,568
2016-11-03T11:24:26.242Z,568
2016-11-03T11:25:27.403Z,552
2016-11-03T11:26:25.123Z,596
2016-11-03T11:27:26.331Z,636
2016-11-03T11:28:29.127Z,696
2016-11-03T11:29:24.833Z,656
2016-11-03T11:30:29.889Z,620
2016-11-03T11:31:27.222Z,596
2016-11-03T11:32:26.580Z,580
2016-11-03T11:33:26.490Z,572
2016-11-03T11:34:27.771Z,584
2016-11-03T11:35:25.342Z,624
2016-11-03T11:36:26.566Z,668
2016-11-03T11:37:27.467Z,744
2016-11-03T11:38:26.876Z,796
2016-11-03T11:39:26.184Z,792
2016-11-03T11:40:27.702Z,868
2016-11-03T11:41:31.011Z,868
2016-11-03T11:42:26.357Z,796
2016-11-03T11:43:27.653Z,732
2016-11-03T11:44:27.088Z,768
2016-11-03T11:45:29.157Z,780
2016-11-03T11:46:26.619Z,812
2016-11-03T11:47:27.594Z,812
2016-11-03T11:48:27.028Z,756
2016-11-03T11:49:26.145Z,736
2016-11-03T11:50:27.744Z,784
2016-11-03T11:51:26.673Z,788
2016-11-03T11:52:28.468Z,760
2016-11-03T11:53:25.800Z,736
2016-11-03T11:54:25.119Z,772
2016-11-03T11:55:26.705Z,924
2016-11-03T11:56:27.987Z,916
2016-11-03T11:57:25.243Z,956
2016-11-03T11:58:26.515Z,912
2016-11-03T11:59:26.459Z,876
2016-11-03T12:00:25.716Z,840
2016-11-03T12:01:28.449Z,784
2016-11-03T12:02:26.581Z,768
2016-11-03T12:03:29.347Z,744
2016-11-03T12:04:26.541Z,744
2016-11-03T12:05:28.773Z,768
2016-11-03T12:06:25.968Z,768
2016-11-03T12:07:27.125Z,700
2016-11-03T12:08:27.951Z,656
2016-11-03T12:09:26.135Z,664
2016-11-03T12:10:25.181Z,680
2016-11-03T12:11:26.675Z,696
2016-11-03T12:12:27.549Z,708
2016-11-03T12:13:25.567Z,728
2016-11-03T12:14:26.804Z,760
2016-11-03T12:15:27.820Z,760
2016-11-03T12:16:25.692Z,784
2016-11-03T12:17:26.800Z,804
2016-11-03T12:18:26.501Z,836
2016-11-03T12:19:27.566Z,808
2016-11-03T12:20:26.497Z,780
2016-11-03T12:21:26.369Z,848
2016-11-03T12:22:27.377Z,856
2016-11-03T12:23:27.221Z,796
2016-11-03T12:24:28.297Z,808
2016-11-03T12:25:27.872Z,800
2016-11-03T12:26:26.743Z,836
2016-11-03T12:27:26.655Z,796
2016-11-03T12:28:27.932Z,796
2016-11-03T12:29:27.041Z,800
2016-11-03T12:30:28.271Z,820
2016-11-03T12:31:27.793Z,852
2016-11-03T12:32:26.989Z,900
2016-11-03T12:33:26.985Z,796
2016-11-03T12:34:29.684Z,796
2016-11-03T12:35:27.326Z,868
2016-11-03T12:36:28.470Z,924
2016-11-03T12:37:28.300Z,940
2016-11-03T12:38:27.617Z,892
2016-11-03T12:39:26.707Z,820
2016-11-03T12:40:26.720Z,772
2016-11-03T12:41:27.698Z,852
2016-11-03T12:42:25.409Z,860
2016-11-03T12:43:28.125Z,856
2016-11-03T12:44:27.479Z,856
2016-11-03T12:45:27.264Z,880
2016-11-03T12:46:26.870Z,900
2016-11-03T12:47:28.416Z,892
2016-11-03T12:48:26.960Z,844
2016-11-03T12:49:28.796Z,812
2016-11-03T12:50:26.094Z,788
2016-11-03T12:51:27.088Z,776
2016-11-03T12:52:26.834Z,812
2016-11-03T12:53:28.283Z,816
2016-11-03T12:54:27.522Z,800
2016-11-03T12:55:26.995Z,784
2016-11-03T12:56:28.426Z,736
2016-11-03T12:57:25.959Z,700
2016-11-03T12:58:27.084Z,676
2016-11-03T12:59:28.211Z,664
2016-11-03T13:00:27.930Z,664
2016-11-03T13:01:27.281Z,748
2016-11-03T13:02:28.648Z,716
2016-11-03T13:03:27.694Z,660
2016-11-03T13:04:27.055Z,656
2016-11-03T13:05:28.685Z,592
2016-11-03T13:06:28.104Z,560
2016-11-03T13:07:27.572Z,588
2016-11-03T13:08:28.350Z,616
2016-11-03T13:09:28.192Z,580
2016-11-03T13:10:27.234Z,500
2016-11-03T13:11:27.090Z,480
2016-11-03T13:12:28.359Z,464
2016-11-03T13:13:27.656Z,444
2016-11-03T13:14:26.904Z,444
2016-11-03T13:15:28.071Z,456
2016-11-03T13:16:25.791Z,460
2016-11-03T13:17:26.903Z,480
2016-11-03T13:18:28.414Z,480
2016-11-03T13:19:27.553Z,488
2016-11-03T13:20:28.846Z,604
2016-11-03T13:21:27.043Z,624
2016-11-03T13:22:27.679Z,544
2016-11-03T13:23:27.511Z,672
2016-11-03T13:24:27.167Z,464
2016-11-03T13:25:26.474Z,440
2016-11-03T13:26:27.159Z,440
2016-11-03T13:27:28.566Z,432
2016-11-03T13:28:28.038Z,424
2016-11-03T13:29:27.422Z,428
2016-11-03T13:30:26.877Z,408
2016-11-03T13:31:28.678Z,412
2016-11-03T13:32:26.110Z,428
2016-11-03T13:33:28.779Z,420
2016-11-03T13:34:28.174Z,408
2016-11-03T13:35:27.841Z,392
2016-11-03T13:36:27.129Z,368
2016-11-03T13:37:28.659Z,348
2016-11-03T13:38:26.275Z,344
2016-11-03T13:39:27.440Z,340
2016-11-03T13:40:28.419Z,336
2016-11-03T13:41:26.147Z,340
2016-11-03T13:42:29.232Z,348
2016-11-03T13:43:28.655Z,340
2016-11-03T13:44:28.651Z,344
2016-11-03T13:45:27.258Z,352
2016-11-03T13:46:28.665Z,356
2016-11-03T13:47:26.383Z,360
2016-11-03T13:48:27.382Z,368
2016-11-03T13:49:27.412Z,360
2016-11-03T13:50:26.820Z,360
2016-11-03T13:51:29.820Z,376
2016-11-03T13:52:27.428Z,376
2016-11-03T13:54:27.969Z,388
2016-11-03T13:55:27.100Z,396
2016-11-03T13:56:27.062Z,388
2016-11-03T13:57:26.379Z,376
2016-11-03T13:58:27.118Z,372
2016-11-03T13:59:27.258Z,376
2016-11-03T14:00:26.560Z,380
2016-11-03T14:01:27.780Z,380
2016-11-03T14:02:29.186Z,368
2016-11-03T14:03:26.672Z,356
2016-11-03T14:04:28.175Z,348
2016-11-03T14:05:28.927Z,344
2016-11-03T14:06:30.548Z,348
2016-11-03T14:07:27.750Z,356
2016-11-03T14:08:27.522Z,372
2016-11-03T14:09:28.259Z,380